sensor_id;sensor_type;location;lat;lon;timestamp;temperature;humidity
6764;DHT22;47432;48.760;9.178;2023-04-06T00:02:12;0.30;99.90
6764;DHT22;47432;48.760;9.178;2023-04-06T00:04:38;0.30;99.90
6764;DHT22;47432;48.760;9.178;2023-04-06T00:09:30;0.10;99.90
6764;DHT22;47432;48.760;9.178;2023-04-06T00:14:23;0.30;99.90
6764;DHT22;47432;48.760;9.178;2023-04-06T00:16:49;0.30;99.90
6764;DHT22;47432;48.760;9.178;2023-04-06T00:21:41;0.30;99.90
6764;DHT22;47432;48.760;9.178;2023-04-06T00:24:07;0.30;99.90
6764;DHT22;47432;48.760;9.178;2023-04-06T00:28:59;0.20;99.90
6764;DHT22;47432;48.760;9.178;2023-04-06T00:31:24;0.10;99.90
6764;DHT22;47432;48.760;9.178;2023-04-06T00:33:50;0.10;99.90
6764;DHT22;47432;48.760;9.178;2023-04-06T00:36:16;0.30;99.90
6764;DHT22;47432;48.760;9.178;2023-04-06T00:38:45;0.30;99.90
6764;DHT22;47432;48.760;9.178;2023-04-06T00:41:11;0.20;99.90
6764;DHT22;47432;48.760;9.178;2023-04-06T00:46:05;0.10;99.90
6764;DHT22;47432;48.760;9.178;2023-04-06T00:48:31;0.00;99.90
6764;DHT22;47432;48.760;9.178;2023-04-06T00:50:58;0.00;99.90
6764;DHT22;47432;48.760;9.178;2023-04-06T00:53:24;0.00;99.90
6764;DHT22;47432;48.760;9.178;2023-04-06T00:55:50;-0.10;99.90
6764;DHT22;47432;48.760;9.178;2023-04-06T00:58:16;-0.10;99.90
6764;DHT22;47432;48.760;9.178;2023-04-06T01:05:35;0.00;99.90
6764;DHT22;47432;48.760;9.178;2023-04-06T01:10:32;0.10;99.90
6764;DHT22;47432;48.760;9.178;2023-04-06T01:15:24;0.10;99.90
6764;DHT22;47432;48.760;9.178;2023-04-06T01:17:51;0.20;99.90
6764;DHT22;47432;48.760;9.178;2023-04-06T01:20:17;0.10;99.90
6764;DHT22;47432;48.760;9.178;2023-04-06T01:25:09;0.10;99.90
6764;DHT22;47432;48.760;9.178;2023-04-06T01:27:35;0.00;99.90
6764;DHT22;47432;48.760;9.178;2023-04-06T01:32:28;-0.10;99.90
6764;DHT22;47432;48.760;9.178;2023-04-06T01:34:54;-0.10;99.90
6764;DHT22;47432;48.760;9.178;2023-04-06T01:39:46;-0.20;99.90
6764;DHT22;47432;48.760;9.178;2023-04-06T01:42:12;-0.30;99.90
6764;DHT22;47432;48.760;9.178;2023-04-06T01:44:38;-0.30;99.90
6764;DHT22;47432;48.760;9.178;2023-04-06T01:47:03;-0.40;99.90
6764;DHT22;47432;48.760;9.178;2023-04-06T01:49:29;-0.40;99.90
6764;DHT22;47432;48.760;9.178;2023-04-06T01:54:21;-0.50;99.90
6764;DHT22;47432;48.760;9.178;2023-04-06T01:56:47;-0.50;99.90
6764;DHT22;47432;48.760;9.178;2023-04-06T01:59:15;-0.50;99.90
6764;DHT22;47432;48.760;9.178;2023-04-06T02:04:07;-0.60;99.90
6764;DHT22;47432;48.760;9.178;2023-04-06T02:06:33;-0.60;99.90
6764;DHT22;47432;48.760;9.178;2023-04-06T02:11:24;-0.60;99.90
6764;DHT22;47432;48.760;9.178;2023-04-06T02:16:16;-0.70;99.90
6764;DHT22;47432;48.760;9.178;2023-04-06T02:18:44;-0.70;99.90
6764;DHT22;47432;48.760;9.178;2023-04-06T02:21:10;-0.70;99.90
6764;DHT22;47432;48.760;9.178;2023-04-06T02:23:36;-0.80;99.90
6764;DHT22;47432;48.760;9.178;2023-04-06T02:26:02;-0.80;99.90
6764;DHT22;47432;48.760;9.178;2023-04-06T02:28:27;-0.80;99.90
6764;DHT22;47432;48.760;9.178;2023-04-06T02:30:53;-0.90;99.90
6764;DHT22;47432;48.760;9.178;2023-04-06T02:33:19;-0.90;99.90
6764;DHT22;47432;48.760;9.178;2023-04-06T02:35:45;-0.80;99.90
6764;DHT22;47432;48.760;9.178;2023-04-06T02:38:11;-0.80;99.90
6764;DHT22;47432;48.760;9.178;2023-04-06T02:43:03;-0.90;99.90
6764;DHT22;47432;48.760;9.178;2023-04-06T02:45:29;-0.90;99.90
6764;DHT22;47432;48.760;9.178;2023-04-06T02:52:47;-1.00;99.90
6764;DHT22;47432;48.760;9.178;2023-04-06T02:55:12;-1.00;99.90
6764;DHT22;47432;48.760;9.178;2023-04-06T03:00:05;-1.00;99.90
6764;DHT22;47432;48.760;9.178;2023-04-06T03:04:58;-1.10;99.90
6764;DHT22;47432;48.760;9.178;2023-04-06T03:07:23;-1.10;99.90
6764;DHT22;47432;48.760;9.178;2023-04-06T03:09:49;-1.10;99.90
6764;DHT22;47432;48.760;9.178;2023-04-06T03:12:15;-1.20;99.90
6764;DHT22;47432;48.760;9.178;2023-04-06T03:19:33;-1.10;99.90
6764;DHT22;47432;48.760;9.178;2023-04-06T03:26:51;-1.10;99.90
6764;DHT22;47432;48.760;9.178;2023-04-06T03:29:17;-1.00;99.90
6764;DHT22;47432;48.760;9.178;2023-04-06T03:31:42;-0.90;99.90
6764;DHT22;47432;48.760;9.178;2023-04-06T03:34:10;-0.90;99.90
6764;DHT22;47432;48.760;9.178;2023-04-06T03:39:02;-0.90;99.90
6764;DHT22;47432;48.760;9.178;2023-04-06T03:41:28;-0.90;99.90
6764;DHT22;47432;48.760;9.178;2023-04-06T03:43:54;-0.90;99.90
6764;DHT22;47432;48.760;9.178;2023-04-06T03:46:20;-0.90;99.90
6764;DHT22;47432;48.760;9.178;2023-04-06T03:48:48;-0.90;99.90
6764;DHT22;47432;48.760;9.178;2023-04-06T03:51:14;-1.00;99.90
6764;DHT22;47432;48.760;9.178;2023-04-06T03:56:06;-1.00;99.90
6764;DHT22;47432;48.760;9.178;2023-04-06T04:03:29;-0.80;99.90
6764;DHT22;47432;48.760;9.178;2023-04-06T04:05:55;-0.60;99.90
6764;DHT22;47432;48.760;9.178;2023-04-06T04:13:13;-0.80;99.90
6764;DHT22;47432;48.760;9.178;2023-04-06T04:20:31;-0.90;99.90
6764;DHT22;47432;48.760;9.178;2023-04-06T04:22:57;-0.90;99.90
6764;DHT22;47432;48.760;9.178;2023-04-06T04:27:49;-0.80;99.90
6764;DHT22;47432;48.760;9.178;2023-04-06T04:35:08;-0.80;99.90
6764;DHT22;47432;48.760;9.178;2023-04-06T04:37:34;-0.90;99.90
6764;DHT22;47432;48.760;9.178;2023-04-06T04:40:00;-0.90;99.90
6764;DHT22;47432;48.760;9.178;2023-04-06T04:42:26;-0.90;99.90
6764;DHT22;47432;48.760;9.178;2023-04-06T04:49:44;-1.00;99.90
6764;DHT22;47432;48.760;9.178;2023-04-06T04:52:10;-0.80;99.90
6764;DHT22;47432;48.760;9.178;2023-04-06T04:54:36;-0.80;99.90
6764;DHT22;47432;48.760;9.178;2023-04-06T04:57:02;-0.90;99.90
6764;DHT22;47432;48.760;9.178;2023-04-06T05:01:55;-0.80;99.90
6764;DHT22;47432;48.760;9.178;2023-04-06T05:04:22;-0.80;99.90
6764;DHT22;47432;48.760;9.178;2023-04-06T05:06:49;-0.70;99.90
6764;DHT22;47432;48.760;9.178;2023-04-06T05:09:14;-0.60;99.90
6764;DHT22;47432;48.760;9.178;2023-04-06T05:16:34;-0.40;99.90
6764;DHT22;47432;48.760;9.178;2023-04-06T05:19:00;-0.40;99.90
6764;DHT22;47432;48.760;9.178;2023-04-06T05:23:53;-0.30;99.90
6764;DHT22;47432;48.760;9.178;2023-04-06T05:26:19;-0.20;99.90
6764;DHT22;47432;48.760;9.178;2023-04-06T05:31:11;-0.10;99.90
6764;DHT22;47432;48.760;9.178;2023-04-06T05:33:37;0.00;99.90
6764;DHT22;47432;48.760;9.178;2023-04-06T05:36:03;0.00;99.90
6764;DHT22;47432;48.760;9.178;2023-04-06T05:38:30;0.10;99.90
6764;DHT22;47432;48.760;9.178;2023-04-06T05:40:56;0.10;99.90
6764;DHT22;47432;48.760;9.178;2023-04-06T05:45:48;0.30;99.90
6764;DHT22;47432;48.760;9.178;2023-04-06T05:48:14;0.30;99.90
6764;DHT22;47432;48.760;9.178;2023-04-06T05:50:39;0.40;99.90
6764;DHT22;47432;48.760;9.178;2023-04-06T05:53:05;0.40;99.90
6764;DHT22;47432;48.760;9.178;2023-04-06T05:55:31;0.50;99.90
6764;DHT22;47432;48.760;9.178;2023-04-06T05:57:57;0.50;99.90
6764;DHT22;47432;48.760;9.178;2023-04-06T06:02:49;0.60;99.90
6764;DHT22;47432;48.760;9.178;2023-04-06T06:05:14;0.60;99.90
6764;DHT22;47432;48.760;9.178;2023-04-06T06:07:40;0.70;99.90
6764;DHT22;47432;48.760;9.178;2023-04-06T06:10:06;0.70;99.90
6764;DHT22;47432;48.760;9.178;2023-04-06T06:12:33;0.80;99.90
6764;DHT22;47432;48.760;9.178;2023-04-06T06:17:25;0.80;99.90
6764;DHT22;47432;48.760;9.178;2023-04-06T06:19:51;0.80;99.90
6764;DHT22;47432;48.760;9.178;2023-04-06T06:22:17;0.90;99.90
6764;DHT22;47432;48.760;9.178;2023-04-06T06:24:43;0.90;99.90
6764;DHT22;47432;48.760;9.178;2023-04-06T06:29:34;1.00;99.90
6764;DHT22;47432;48.760;9.178;2023-04-06T06:32:03;1.10;99.90
6764;DHT22;47432;48.760;9.178;2023-04-06T06:34:29;1.30;99.90
6764;DHT22;47432;48.760;9.178;2023-04-06T06:36:55;1.40;99.90
6764;DHT22;47432;48.760;9.178;2023-04-06T06:41:48;1.50;99.90
6764;DHT22;47432;48.760;9.178;2023-04-06T06:44:13;1.70;99.90
6764;DHT22;47432;48.760;9.178;2023-04-06T06:46:39;1.90;99.90
6764;DHT22;47432;48.760;9.178;2023-04-06T06:53:58;2.40;99.90
6764;DHT22;47432;48.760;9.178;2023-04-06T06:56:23;2.60;99.90
6764;DHT22;47432;48.760;9.178;2023-04-06T07:01:15;2.90;99.90
6764;DHT22;47432;48.760;9.178;2023-04-06T07:06:07;3.30;99.90
6764;DHT22;47432;48.760;9.178;2023-04-06T07:08:33;3.60;99.90
6764;DHT22;47432;48.760;9.178;2023-04-06T07:10:59;3.80;99.90
6764;DHT22;47432;48.760;9.178;2023-04-06T07:13:25;4.10;99.90
6764;DHT22;47432;48.760;9.178;2023-04-06T07:15:54;4.20;99.90
6764;DHT22;47432;48.760;9.178;2023-04-06T07:18:21;4.40;99.90
6764;DHT22;47432;48.760;9.178;2023-04-06T07:20:47;4.50;99.90
6764;DHT22;47432;48.760;9.178;2023-04-06T07:30:31;5.10;99.90
6764;DHT22;47432;48.760;9.178;2023-04-06T07:35:25;5.40;99.90
6764;DHT22;47432;48.760;9.178;2023-04-06T07:37:52;5.50;99.90
6764;DHT22;47432;48.760;9.178;2023-04-06T07:45:12;6.00;99.90
6764;DHT22;47432;48.760;9.178;2023-04-06T07:47:38;6.10;99.90
6764;DHT22;47432;48.760;9.178;2023-04-06T07:50:04;6.30;99.90
6764;DHT22;47432;48.760;9.178;2023-04-06T07:52:31;6.40;99.90
6764;DHT22;47432;48.760;9.178;2023-04-06T07:54:58;6.60;99.90
6764;DHT22;47432;48.760;9.178;2023-04-06T07:59:52;7.10;99.90
6764;DHT22;47432;48.760;9.178;2023-04-06T08:02:18;7.20;99.70
6764;DHT22;47432;48.760;9.178;2023-04-06T08:12:03;7.70;99.90
6764;DHT22;47432;48.760;9.178;2023-04-06T08:16:57;7.80;99.80
6764;DHT22;47432;48.760;9.178;2023-04-06T08:21:49;8.20;97.80
6764;DHT22;47432;48.760;9.178;2023-04-06T08:24:14;8.30;97.60
6764;DHT22;47432;48.760;9.178;2023-04-06T08:29:13;8.60;97.30
6764;DHT22;47432;48.760;9.178;2023-04-06T08:31:39;8.80;97.30
6764;DHT22;47432;48.760;9.178;2023-04-06T08:34:05;8.90;96.80
6764;DHT22;47432;48.760;9.178;2023-04-06T08:36:32;8.90;96.30
6764;DHT22;47432;48.760;9.178;2023-04-06T08:38:59;9.00;95.10
6764;DHT22;47432;48.760;9.178;2023-04-06T08:41:26;9.10;95.50
6764;DHT22;47432;48.760;9.178;2023-04-06T08:43:57;9.20;94.70
6764;DHT22;47432;48.760;9.178;2023-04-06T08:46:25;9.20;93.80
6764;DHT22;47432;48.760;9.178;2023-04-06T08:48:59;9.40;94.30
6764;DHT22;47432;48.760;9.178;2023-04-06T08:51:27;9.40;93.90
6764;DHT22;47432;48.760;9.178;2023-04-06T08:53:57;9.50;94.10
6764;DHT22;47432;48.760;9.178;2023-04-06T08:56:26;9.60;93.90
6764;DHT22;47432;48.760;9.178;2023-04-06T08:58:53;9.70;94.10
6764;DHT22;47432;48.760;9.178;2023-04-06T09:01:26;9.70;93.40
6764;DHT22;47432;48.760;9.178;2023-04-06T09:03:57;9.80;93.50
6764;DHT22;47432;48.760;9.178;2023-04-06T09:06:24;9.80;93.30
6764;DHT22;47432;48.760;9.178;2023-04-06T09:08:54;9.90;93.50
6764;DHT22;47432;48.760;9.178;2023-04-06T09:11:20;10.00;92.40
6764;DHT22;47432;48.760;9.178;2023-04-06T09:13:50;10.00;92.40
6764;DHT22;47432;48.760;9.178;2023-04-06T09:16:18;10.00;92.00
6764;DHT22;47432;48.760;9.178;2023-04-06T09:18:44;10.00;92.10
6764;DHT22;47432;48.760;9.178;2023-04-06T09:23:41;10.10;91.80
6764;DHT22;47432;48.760;9.178;2023-04-06T09:26:15;10.20;91.80
6764;DHT22;47432;48.760;9.178;2023-04-06T09:28:50;10.20;91.60
6764;DHT22;47432;48.760;9.178;2023-04-06T09:31:27;10.30;91.00
6764;DHT22;47432;48.760;9.178;2023-04-06T09:33:56;10.20;91.20
6764;DHT22;47432;48.760;9.178;2023-04-06T09:36:32;10.40;91.10
6764;DHT22;47432;48.760;9.178;2023-04-06T09:39:03;10.40;90.10
6764;DHT22;47432;48.760;9.178;2023-04-06T09:41:34;10.40;90.10
6764;DHT22;47432;48.760;9.178;2023-04-06T09:44:10;10.40;89.60
6764;DHT22;47432;48.760;9.178;2023-04-06T09:46:38;10.30;86.20
6764;DHT22;47432;48.760;9.178;2023-04-06T09:49:06;10.40;88.10
6764;DHT22;47432;48.760;9.178;2023-04-06T09:51:36;10.60;88.80
6764;DHT22;47432;48.760;9.178;2023-04-06T09:54:02;10.70;89.50
6764;DHT22;47432;48.760;9.178;2023-04-06T10:00:04;11.20;78.80
6764;DHT22;47432;48.760;9.178;2023-04-06T10:02:48;11.20;76.30
6764;DHT22;47432;48.760;9.178;2023-04-06T10:05:46;11.10;77.00
6764;DHT22;47432;48.760;9.178;2023-04-06T10:08:15;11.20;80.90
6764;DHT22;47432;48.760;9.178;2023-04-06T10:13:10;11.50;79.30
6764;DHT22;47432;48.760;9.178;2023-04-06T10:15:38;11.60;77.70
6764;DHT22;47432;48.760;9.178;2023-04-06T10:18:04;11.60;75.50
6764;DHT22;47432;48.760;9.178;2023-04-06T10:20:53;11.70;76.10
6764;DHT22;47432;48.760;9.178;2023-04-06T10:23:34;11.90;74.60
6764;DHT22;47432;48.760;9.178;2023-04-06T10:26:20;11.90;72.60
6764;DHT22;47432;48.760;9.178;2023-04-06T10:28:48;11.90;73.10
6764;DHT22;47432;48.760;9.178;2023-04-06T10:31:15;12.20;77.10
6764;DHT22;47432;48.760;9.178;2023-04-06T10:34:00;12.30;72.70
6764;DHT22;47432;48.760;9.178;2023-04-06T10:36:31;12.50;73.40
6764;DHT22;47432;48.760;9.178;2023-04-06T10:39:07;12.20;70.10
6764;DHT22;47432;48.760;9.178;2023-04-06T10:41:42;12.20;70.90
6764;DHT22;47432;48.760;9.178;2023-04-06T10:44:17;12.20;69.60
6764;DHT22;47432;48.760;9.178;2023-04-06T10:46:53;12.40;69.50
6764;DHT22;47432;48.760;9.178;2023-04-06T10:49:20;12.40;68.80
6764;DHT22;47432;48.760;9.178;2023-04-06T10:51:54;12.60;70.20
6764;DHT22;47432;48.760;9.178;2023-04-06T10:54:21;12.90;69.50
6764;DHT22;47432;48.760;9.178;2023-04-06T10:59:21;12.90;68.10
6764;DHT22;47432;48.760;9.178;2023-04-06T11:04:19;12.80;62.00
6764;DHT22;47432;48.760;9.178;2023-04-06T11:06:47;12.80;64.50
6764;DHT22;47432;48.760;9.178;2023-04-06T11:09:26;12.90;63.50
6764;DHT22;47432;48.760;9.178;2023-04-06T11:11:56;12.90;63.50
6764;DHT22;47432;48.760;9.178;2023-04-06T11:14:22;12.90;63.60
6764;DHT22;47432;48.760;9.178;2023-04-06T11:16:48;13.20;65.00
6764;DHT22;47432;48.760;9.178;2023-04-06T11:19:17;13.20;61.40
6764;DHT22;47432;48.760;9.178;2023-04-06T11:21:45;13.30;62.40
6764;DHT22;47432;48.760;9.178;2023-04-06T11:24:24;13.20;61.40
6764;DHT22;47432;48.760;9.178;2023-04-06T11:26:57;13.30;62.20
6764;DHT22;47432;48.760;9.178;2023-04-06T11:29:26;13.60;64.10
6764;DHT22;47432;48.760;9.178;2023-04-06T11:31:59;13.90;63.40
6764;DHT22;47432;48.760;9.178;2023-04-06T11:34:30;14.20;61.50
6764;DHT22;47432;48.760;9.178;2023-04-06T11:37:02;14.30;59.40
6764;DHT22;47432;48.760;9.178;2023-04-06T11:39:31;14.00;56.90
6764;DHT22;47432;48.760;9.178;2023-04-06T11:41:59;13.80;57.80
6764;DHT22;47432;48.760;9.178;2023-04-06T11:44:44;14.00;63.00
6764;DHT22;47432;48.760;9.178;2023-04-06T11:47:14;14.20;59.30
6764;DHT22;47432;48.760;9.178;2023-04-06T11:49:42;14.60;61.50
6764;DHT22;47432;48.760;9.178;2023-04-06T11:52:25;15.10;61.50
6764;DHT22;47432;48.760;9.178;2023-04-06T11:54:53;15.10;55.30
6764;DHT22;47432;48.760;9.178;2023-04-06T11:57:21;15.20;55.90
6764;DHT22;47432;48.760;9.178;2023-04-06T11:59:51;15.50;59.60
6764;DHT22;47432;48.760;9.178;2023-04-06T12:02:17;15.80;56.70
6764;DHT22;47432;48.760;9.178;2023-04-06T12:04:43;16.00;56.50
6764;DHT22;47432;48.760;9.178;2023-04-06T12:07:09;16.10;56.20
6764;DHT22;47432;48.760;9.178;2023-04-06T12:09:35;16.70;54.80
6764;DHT22;47432;48.760;9.178;2023-04-06T12:12:02;17.20;53.10
6764;DHT22;47432;48.760;9.178;2023-04-06T12:14:29;17.60;53.30
6764;DHT22;47432;48.760;9.178;2023-04-06T12:16:56;17.10;50.30
6764;DHT22;47432;48.760;9.178;2023-04-06T12:19:23;16.90;50.00
6764;DHT22;47432;48.760;9.178;2023-04-06T12:21:52;16.90;51.90
6764;DHT22;47432;48.760;9.178;2023-04-06T12:24:19;17.10;48.90
6764;DHT22;47432;48.760;9.178;2023-04-06T12:26:45;17.30;49.90
6764;DHT22;47432;48.760;9.178;2023-04-06T12:29:11;18.70;51.60
6764;DHT22;47432;48.760;9.178;2023-04-06T12:31:39;18.50;46.40
6764;DHT22;47432;48.760;9.178;2023-04-06T12:34:06;18.30;48.80
6764;DHT22;47432;48.760;9.178;2023-04-06T12:36:33;18.60;48.20
6764;DHT22;47432;48.760;9.178;2023-04-06T12:38:59;19.30;47.70
6764;DHT22;47432;48.760;9.178;2023-04-06T12:41:25;19.90;45.60
6764;DHT22;47432;48.760;9.178;2023-04-06T12:46:18;20.10;44.50
6764;DHT22;47432;48.760;9.178;2023-04-06T12:51:11;19.80;42.40
6764;DHT22;47432;48.760;9.178;2023-04-06T12:56:13;19.50;44.70
6764;DHT22;47432;48.760;9.178;2023-04-06T12:58:41;19.70;42.00
6764;DHT22;47432;48.760;9.178;2023-04-06T13:01:07;19.50;40.40
6764;DHT22;47432;48.760;9.178;2023-04-06T13:06:00;18.80;40.50
6764;DHT22;47432;48.760;9.178;2023-04-06T13:08:26;19.30;42.80
6764;DHT22;47432;48.760;9.178;2023-04-06T13:13:25;20.40;39.90
6764;DHT22;47432;48.760;9.178;2023-04-06T13:15:58;20.40;37.40
6764;DHT22;47432;48.760;9.178;2023-04-06T13:18:26;20.20;37.60
6764;DHT22;47432;48.760;9.178;2023-04-06T13:20:52;20.30;38.80
6764;DHT22;47432;48.760;9.178;2023-04-06T13:23:18;20.30;39.20
6764;DHT22;47432;48.760;9.178;2023-04-06T13:28:10;19.40;40.10
6764;DHT22;47432;48.760;9.178;2023-04-06T13:33:03;19.80;37.90
6764;DHT22;47432;48.760;9.178;2023-04-06T13:35:29;19.80;37.60
6764;DHT22;47432;48.760;9.178;2023-04-06T13:37:55;19.90;36.00
6764;DHT22;47432;48.760;9.178;2023-04-06T13:40:21;20.60;36.50
6764;DHT22;47432;48.760;9.178;2023-04-06T13:42:50;21.50;35.60
6764;DHT22;47432;48.760;9.178;2023-04-06T13:45:16;21.40;34.40
6764;DHT22;47432;48.760;9.178;2023-04-06T13:47:41;21.10;37.40
6764;DHT22;47432;48.760;9.178;2023-04-06T13:50:07;21.10;38.30
6764;DHT22;47432;48.760;9.178;2023-04-06T13:52:35;21.00;38.70
6764;DHT22;47432;48.760;9.178;2023-04-06T13:55:01;21.10;37.90
6764;DHT22;47432;48.760;9.178;2023-04-06T13:57:27;20.50;36.10
6764;DHT22;47432;48.760;9.178;2023-04-06T14:02:21;19.30;35.00
6764;DHT22;47432;48.760;9.178;2023-04-06T14:04:52;19.00;36.70
6764;DHT22;47432;48.760;9.178;2023-04-06T14:07:20;18.60;36.80
6764;DHT22;47432;48.760;9.178;2023-04-06T14:09:47;18.30;36.50
6764;DHT22;47432;48.760;9.178;2023-04-06T14:14:38;18.90;35.70
6764;DHT22;47432;48.760;9.178;2023-04-06T14:17:04;18.60;35.70
6764;DHT22;47432;48.760;9.178;2023-04-06T14:21:57;18.70;37.90
6764;DHT22;47432;48.760;9.178;2023-04-06T14:26:49;18.80;38.20
6764;DHT22;47432;48.760;9.178;2023-04-06T14:29:14;19.30;37.40
6764;DHT22;47432;48.760;9.178;2023-04-06T14:31:41;19.40;35.90
6764;DHT22;47432;48.760;9.178;2023-04-06T14:36:33;20.10;34.80
6764;DHT22;47432;48.760;9.178;2023-04-06T14:39:04;20.20;35.50
6764;DHT22;47432;48.760;9.178;2023-04-06T14:41:31;20.60;35.50
6764;DHT22;47432;48.760;9.178;2023-04-06T14:43:58;20.50;34.50
6764;DHT22;47432;48.760;9.178;2023-04-06T14:46:24;20.20;35.10
6764;DHT22;47432;48.760;9.178;2023-04-06T14:48:54;19.60;35.50
6764;DHT22;47432;48.760;9.178;2023-04-06T14:53:49;18.00;35.70
6764;DHT22;47432;48.760;9.178;2023-04-06T14:56:22;17.40;34.50
6764;DHT22;47432;48.760;9.178;2023-04-06T14:58:52;17.00;37.50
6764;DHT22;47432;48.760;9.178;2023-04-06T15:01:18;17.00;36.60
6764;DHT22;47432;48.760;9.178;2023-04-06T15:06:13;16.70;36.80
6764;DHT22;47432;48.760;9.178;2023-04-06T15:08:43;16.90;36.40
6764;DHT22;47432;48.760;9.178;2023-04-06T15:11:09;17.10;36.60
6764;DHT22;47432;48.760;9.178;2023-04-06T15:13:35;17.40;37.10
6764;DHT22;47432;48.760;9.178;2023-04-06T15:18:28;17.80;35.90
6764;DHT22;47432;48.760;9.178;2023-04-06T15:23:20;17.90;35.70
6764;DHT22;47432;48.760;9.178;2023-04-06T15:25:46;17.60;35.70
6764;DHT22;47432;48.760;9.178;2023-04-06T15:28:12;17.40;35.70
6764;DHT22;47432;48.760;9.178;2023-04-06T15:33:07;17.00;39.00
6764;DHT22;47432;48.760;9.178;2023-04-06T15:35:33;16.90;40.00
6764;DHT22;47432;48.760;9.178;2023-04-06T15:38:05;16.80;38.60
6764;DHT22;47432;48.760;9.178;2023-04-06T15:40:31;16.50;40.10
6764;DHT22;47432;48.760;9.178;2023-04-06T15:42:59;16.40;38.30
6764;DHT22;47432;48.760;9.178;2023-04-06T15:45:25;16.00;38.20
6764;DHT22;47432;48.760;9.178;2023-04-06T15:50:20;15.90;38.50
6764;DHT22;47432;48.760;9.178;2023-04-06T15:52:46;15.70;37.80
6764;DHT22;47432;48.760;9.178;2023-04-06T15:55:11;15.20;39.00
6764;DHT22;47432;48.760;9.178;2023-04-06T16:00:03;15.00;40.40
6764;DHT22;47432;48.760;9.178;2023-04-06T16:02:30;15.10;39.60
6764;DHT22;47432;48.760;9.178;2023-04-06T16:04:57;15.10;39.30
6764;DHT22;47432;48.760;9.178;2023-04-06T16:07:23;15.00;39.60
6764;DHT22;47432;48.760;9.178;2023-04-06T16:09:50;15.00;39.70
6764;DHT22;47432;48.760;9.178;2023-04-06T16:17:10;14.80;40.60
6764;DHT22;47432;48.760;9.178;2023-04-06T16:19:37;14.70;41.20
6764;DHT22;47432;48.760;9.178;2023-04-06T16:29:25;13.80;42.90
6764;DHT22;47432;48.760;9.178;2023-04-06T16:36:48;13.60;44.30
6764;DHT22;47432;48.760;9.178;2023-04-06T16:39:17;13.40;44.30
6764;DHT22;47432;48.760;9.178;2023-04-06T16:41:43;13.20;44.80
6764;DHT22;47432;48.760;9.178;2023-04-06T16:44:11;13.10;45.10
6764;DHT22;47432;48.760;9.178;2023-04-06T16:46:37;13.00;45.60
6764;DHT22;47432;48.760;9.178;2023-04-06T16:49:03;13.00;46.20
6764;DHT22;47432;48.760;9.178;2023-04-06T16:51:31;12.80;46.70
6764;DHT22;47432;48.760;9.178;2023-04-06T16:53:57;12.70;47.30
6764;DHT22;47432;48.760;9.178;2023-04-06T16:58:52;12.60;48.40
6764;DHT22;47432;48.760;9.178;2023-04-06T17:01:23;12.50;48.60
6764;DHT22;47432;48.760;9.178;2023-04-06T17:06:17;12.30;50.40
6764;DHT22;47432;48.760;9.178;2023-04-06T17:08:44;12.30;51.20
6764;DHT22;47432;48.760;9.178;2023-04-06T17:11:11;12.20;51.70
6764;DHT22;47432;48.760;9.178;2023-04-06T17:13:41;12.20;52.50
6764;DHT22;47432;48.760;9.178;2023-04-06T17:16:07;12.10;52.70
6764;DHT22;47432;48.760;9.178;2023-04-06T17:18:34;12.00;51.90
6764;DHT22;47432;48.760;9.178;2023-04-06T17:21:04;11.80;51.00
6764;DHT22;47432;48.760;9.178;2023-04-06T17:23:31;11.70;51.10
6764;DHT22;47432;48.760;9.178;2023-04-06T17:28:24;11.60;49.70
6764;DHT22;47432;48.760;9.178;2023-04-06T17:33:16;11.60;50.30
6764;DHT22;47432;48.760;9.178;2023-04-06T17:35:43;11.60;49.50
6764;DHT22;47432;48.760;9.178;2023-04-06T17:38:09;11.60;50.20
6764;DHT22;47432;48.760;9.178;2023-04-06T17:45:31;11.50;48.70
6764;DHT22;47432;48.760;9.178;2023-04-06T17:47:57;11.50;48.20
6764;DHT22;47432;48.760;9.178;2023-04-06T17:50:23;11.50;48.60
6764;DHT22;47432;48.760;9.178;2023-04-06T17:52:49;11.50;48.20
6764;DHT22;47432;48.760;9.178;2023-04-06T17:55:17;11.50;48.30
6764;DHT22;47432;48.760;9.178;2023-04-06T18:00:12;11.40;49.60
6764;DHT22;47432;48.760;9.178;2023-04-06T18:02:41;11.30;50.60
6764;DHT22;47432;48.760;9.178;2023-04-06T18:07:33;11.30;51.20
6764;DHT22;47432;48.760;9.178;2023-04-06T18:10:00;11.30;51.10
6764;DHT22;47432;48.760;9.178;2023-04-06T18:17:18;11.20;52.10
6764;DHT22;47432;48.760;9.178;2023-04-06T18:19:44;11.20;52.40
6764;DHT22;47432;48.760;9.178;2023-04-06T18:24:37;11.00;54.30
6764;DHT22;47432;48.760;9.178;2023-04-06T18:27:03;11.00;55.50
6764;DHT22;47432;48.760;9.178;2023-04-06T18:31:55;10.90;55.40
6764;DHT22;47432;48.760;9.178;2023-04-06T18:36:47;10.80;55.00
6764;DHT22;47432;48.760;9.178;2023-04-06T18:39:16;10.70;56.70
6764;DHT22;47432;48.760;9.178;2023-04-06T18:49:00;10.50;56.20
6764;DHT22;47432;48.760;9.178;2023-04-06T18:51:32;10.60;56.30
6764;DHT22;47432;48.760;9.178;2023-04-06T18:53:59;10.60;57.60
6764;DHT22;47432;48.760;9.178;2023-04-06T18:56:26;10.50;56.90
6764;DHT22;47432;48.760;9.178;2023-04-06T18:58:54;10.50;57.80
6764;DHT22;47432;48.760;9.178;2023-04-06T19:01:28;10.40;58.20
6764;DHT22;47432;48.760;9.178;2023-04-06T19:03:56;10.40;58.10
6764;DHT22;47432;48.760;9.178;2023-04-06T19:06:25;10.40;58.00
6764;DHT22;47432;48.760;9.178;2023-04-06T19:08:52;10.30;58.70
6764;DHT22;47432;48.760;9.178;2023-04-06T19:11:18;10.20;60.10
6764;DHT22;47432;48.760;9.178;2023-04-06T19:16:16;10.10;61.30
6764;DHT22;47432;48.760;9.178;2023-04-06T19:18:43;10.10;62.10
6764;DHT22;47432;48.760;9.178;2023-04-06T19:21:28;10.00;64.50
6764;DHT22;47432;48.760;9.178;2023-04-06T19:26:20;9.80;66.80
6764;DHT22;47432;48.760;9.178;2023-04-06T19:28:47;9.80;69.90
6764;DHT22;47432;48.760;9.178;2023-04-06T19:31:14;9.80;65.30
6764;DHT22;47432;48.760;9.178;2023-04-06T19:33:41;9.80;64.70
6764;DHT22;47432;48.760;9.178;2023-04-06T19:36:08;9.80;66.10
6764;DHT22;47432;48.760;9.178;2023-04-06T19:41:01;9.70;66.00
6764;DHT22;47432;48.760;9.178;2023-04-06T19:45:53;9.60;71.90
6764;DHT22;47432;48.760;9.178;2023-04-06T19:48:19;9.50;69.00
6764;DHT22;47432;48.760;9.178;2023-04-06T19:50:45;9.60;67.90
6764;DHT22;47432;48.760;9.178;2023-04-06T19:55:41;9.90;68.80
6764;DHT22;47432;48.760;9.178;2023-04-06T19:58:08;9.90;69.80
6764;DHT22;47432;48.760;9.178;2023-04-06T20:03:00;9.90;71.10
6764;DHT22;47432;48.760;9.178;2023-04-06T20:15:15;9.80;74.40
6764;DHT22;47432;48.760;9.178;2023-04-06T20:20:10;9.80;75.20
6764;DHT22;47432;48.760;9.178;2023-04-06T20:27:31;9.80;78.40
6764;DHT22;47432;48.760;9.178;2023-04-06T20:29:57;9.80;79.40
6764;DHT22;47432;48.760;9.178;2023-04-06T20:39:45;9.70;83.90
6764;DHT22;47432;48.760;9.178;2023-04-06T20:49:32;9.50;89.90
6764;DHT22;47432;48.760;9.178;2023-04-06T20:51:57;9.40;90.50
6764;DHT22;47432;48.760;9.178;2023-04-06T20:54:25;9.40;91.30
6764;DHT22;47432;48.760;9.178;2023-04-06T20:56:53;9.30;91.80
6764;DHT22;47432;48.760;9.178;2023-04-06T20:59:24;9.40;92.50
6764;DHT22;47432;48.760;9.178;2023-04-06T21:01:53;9.30;93.00
6764;DHT22;47432;48.760;9.178;2023-04-06T21:06:47;9.30;94.00
6764;DHT22;47432;48.760;9.178;2023-04-06T21:09:14;9.20;94.50
6764;DHT22;47432;48.760;9.178;2023-04-06T21:19:00;9.00;97.20
6764;DHT22;47432;48.760;9.178;2023-04-06T21:21:26;9.00;98.30
6764;DHT22;47432;48.760;9.178;2023-04-06T21:23:52;8.90;99.60